createdAt,value
2019-04-05T00:01:13.024Z,13.43
2019-04-05T00:03:44.252Z,13.48
2019-04-05T00:06:14.023Z,12.58
2019-04-05T00:08:43.854Z,12.95
2019-04-05T00:11:16.347Z,13.70
2019-04-05T00:13:46.040Z,13.68
2019-04-05T00:16:15.650Z,14.10
2019-04-05T00:18:45.224Z,14.23
2019-04-05T00:21:15.143Z,13.30
2019-04-05T00:23:45.095Z,13.08
2019-04-05T00:26:14.752Z,11.43
2019-04-05T00:28:47.276Z,13.90
2019-04-05T00:31:16.957Z,14.03
2019-04-05T00:33:46.618Z,12.95
2019-04-05T00:36:16.457Z,14.53
2019-04-05T00:38:47.547Z,12.90
2019-04-05T00:41:17.293Z,11.03
2019-04-05T00:43:47.052Z,12.05
2019-04-05T00:46:16.807Z,12.23
2019-04-05T00:48:46.475Z,10.95
2019-04-05T00:51:16.559Z,12.45
2019-04-05T00:53:46.320Z,12.70
2019-04-05T00:56:16.046Z,13.22
2019-04-05T00:58:45.941Z,12.90
2019-04-05T01:01:15.587Z,11.73
2019-04-05T01:03:45.206Z,13.38
2019-04-05T01:06:14.974Z,14.13
2019-04-05T01:08:44.729Z,14.50
2019-04-05T01:11:14.432Z,15.00
2019-04-05T01:13:44.250Z,12.70
2019-04-05T01:16:13.817Z,14.10
2019-04-05T01:18:43.370Z,13.50
2019-04-05T01:21:15.318Z,13.78
2019-04-05T01:23:46.435Z,14.30
2019-04-05T01:26:18.607Z,14.30
2019-04-05T01:28:48.596Z,14.23
2019-04-05T01:31:18.252Z,13.48
2019-04-05T01:33:48.065Z,14.50
2019-04-05T01:36:18.045Z,14.75
2019-04-05T01:38:48.614Z,15.08
2019-04-05T01:41:18.462Z,14.35
2019-04-05T01:43:48.191Z,13.75
2019-04-05T01:46:17.911Z,16.07
2019-04-05T01:48:47.583Z,14.55
2019-04-05T01:51:17.448Z,14.10
2019-04-05T01:53:47.223Z,12.53
2019-04-05T01:56:16.865Z,16.00
2019-04-05T01:58:46.473Z,15.35
2019-04-05T02:01:16.220Z,14.95
2019-04-05T02:03:45.801Z,12.75
2019-04-05T02:06:15.414Z,15.95
2019-04-05T02:08:45.142Z,17.57
2019-04-05T02:11:15.058Z,15.15
2019-04-05T02:13:44.723Z,13.90
2019-04-05T02:16:14.318Z,15.25
2019-04-05T02:18:43.959Z,15.75
2019-04-05T02:21:13.583Z,18.55
2019-04-05T02:23:43.315Z,16.75
2019-04-05T02:26:12.917Z,18.73
2019-04-05T02:28:42.552Z,17.40
2019-04-05T02:31:12.283Z,18.62
2019-04-05T02:33:41.979Z,18.52
2019-04-05T02:36:12.821Z,16.05
2019-04-05T02:38:42.554Z,16.60
2019-04-05T02:41:13.015Z,18.27
2019-04-05T02:43:43.640Z,19.07
2019-04-05T02:46:23.494Z,18.50
2019-04-05T02:48:50.418Z,17.05
2019-04-05T02:54:13.803Z,16.95
2019-04-05T02:56:45.108Z,18.07
2019-04-05T02:59:16.255Z,17.12
2019-04-05T03:01:46.019Z,17.27
2019-04-05T03:04:16.554Z,16.15
2019-04-05T03:06:46.680Z,19.42
2019-04-05T03:09:16.407Z,17.95
2019-04-05T03:11:46.173Z,19.32
2019-04-05T03:14:15.884Z,18.75
2019-04-05T03:16:48.287Z,18.85
2019-04-05T03:19:23.887Z,17.75
2019-04-05T03:21:58.442Z,17.52
2019-04-05T03:24:31.518Z,17.92
2019-04-05T03:27:10.109Z,18.23
2019-04-05T03:29:40.153Z,19.07
2019-04-05T03:32:10.079Z,19.40
2019-04-05T03:34:40.863Z,17.90
2019-04-05T03:37:11.030Z,19.32
2019-04-05T03:39:41.096Z,18.30
2019-04-05T03:42:11.569Z,19.87
2019-04-05T03:44:42.312Z,19.07
2019-04-05T03:47:11.946Z,21.77
2019-04-05T03:49:41.992Z,18.98
2019-04-05T03:52:11.780Z,18.80
2019-04-05T03:54:41.774Z,18.67
2019-04-05T03:57:12.289Z,20.20
2019-04-05T03:59:41.939Z,20.95
2019-04-05T04:02:11.977Z,19.85
2019-04-05T04:04:42.054Z,23.07
2019-04-05T04:07:12.403Z,21.55
2019-04-05T04:09:42.032Z,19.30
2019-04-05T04:12:11.737Z,18.77
2019-04-05T04:14:41.893Z,22.37
2019-04-05T04:17:13.364Z,20.65
2019-04-05T04:19:44.471Z,22.13
2019-04-05T04:22:28.939Z,22.00
2019-04-05T04:25:00.028Z,21.05
2019-04-05T04:27:49.946Z,20.90
2019-04-05T04:30:19.959Z,17.90
2019-04-05T04:32:49.767Z,20.62
2019-04-05T04:35:19.681Z,18.67
2019-04-05T04:37:49.598Z,18.90
2019-04-05T04:40:20.389Z,21.15
2019-04-05T04:42:50.932Z,19.42
2019-04-05T04:45:20.942Z,22.15
2019-04-05T04:47:50.655Z,19.77
2019-04-05T04:50:26.818Z,18.73
2019-04-05T04:52:56.935Z,21.27
2019-04-05T04:56:01.162Z,21.20
2019-04-05T04:58:31.003Z,21.25
2019-04-05T05:01:01.224Z,21.30
2019-04-05T05:03:49.982Z,19.12
2019-04-05T05:06:20.098Z,19.80
2019-04-05T05:08:49.817Z,22.82
2019-04-05T05:11:21.769Z,19.80
2019-04-05T05:13:51.516Z,23.27
2019-04-05T05:16:21.341Z,20.00
2019-04-05T05:18:51.040Z,21.33
2019-04-05T05:21:21.021Z,19.40
2019-04-05T05:23:51.347Z,21.35
2019-04-05T05:26:21.411Z,19.62
2019-04-05T05:28:51.396Z,19.07
2019-04-05T05:31:21.395Z,22.50
2019-04-05T05:33:51.624Z,22.32
2019-04-05T05:36:21.896Z,19.75
2019-04-05T05:38:51.656Z,19.73
2019-04-05T05:41:21.304Z,20.30
2019-04-05T05:43:51.075Z,17.55
2019-04-05T05:46:20.660Z,20.12
2019-04-05T05:48:50.326Z,19.10
2019-04-05T05:51:20.200Z,18.05
2019-04-05T05:53:50.105Z,17.02
2019-04-05T05:56:19.653Z,15.55
2019-04-05T05:58:49.198Z,17.40
2019-04-05T06:01:18.992Z,17.77
2019-04-05T06:03:48.904Z,18.55
2019-04-05T06:06:18.688Z,17.55
2019-04-05T06:08:48.401Z,17.12
2019-04-05T06:11:18.133Z,17.67
2019-04-05T06:13:47.696Z,16.57
2019-04-05T06:16:17.594Z,19.67
2019-04-05T06:18:48.646Z,18.30
2019-04-05T06:21:19.281Z,17.25
2019-04-05T06:23:48.964Z,16.55
2019-04-05T06:26:18.537Z,18.10
2019-04-05T06:28:48.309Z,16.07
2019-04-05T06:31:18.026Z,16.60
2019-04-05T06:33:47.629Z,15.08
2019-04-05T06:36:17.337Z,16.10
2019-04-05T06:38:46.949Z,17.15
2019-04-05T06:41:16.806Z,18.48
2019-04-05T06:43:46.576Z,16.32
2019-04-05T06:46:16.293Z,16.07
2019-04-05T06:48:46.170Z,16.37
2019-04-05T06:51:17.000Z,16.67
2019-04-05T06:53:46.752Z,14.75
2019-04-05T06:56:17.291Z,16.85
2019-04-05T06:58:47.051Z,18.07
2019-04-05T07:01:17.075Z,16.48
2019-04-05T07:03:46.750Z,17.42
2019-04-05T07:06:16.486Z,16.07
2019-04-05T07:08:53.886Z,15.58
2019-04-05T07:11:19.528Z,15.23
2019-04-05T07:13:49.178Z,17.80
2019-04-05T07:16:20.796Z,15.65
2019-04-05T07:18:50.406Z,16.48
2019-04-05T07:21:20.047Z,14.70
2019-04-05T07:23:53.423Z,16.62
2019-04-05T07:26:23.497Z,15.60
2019-04-05T07:28:53.223Z,16.60
2019-04-05T07:31:23.112Z,15.90
2019-04-05T07:33:56.097Z,15.83
2019-04-05T07:36:24.977Z,15.65
2019-04-05T07:38:54.593Z,15.78
2019-04-05T07:41:24.288Z,16.67
2019-04-05T07:43:54.059Z,15.25
2019-04-05T07:46:23.753Z,15.08
2019-04-05T07:48:53.414Z,12.13
2019-04-05T07:51:23.047Z,13.55
2019-04-05T07:53:52.646Z,12.20
2019-04-05T07:56:42.152Z,14.53
2019-04-05T07:59:13.979Z,13.55
2019-04-05T08:01:43.266Z,13.68
2019-04-05T08:04:12.926Z,13.38
2019-04-05T08:06:43.758Z,14.70
2019-04-05T08:09:15.844Z,13.32
2019-04-05T08:11:46.590Z,13.75
2019-04-05T08:14:18.697Z,10.68
2019-04-05T08:16:48.505Z,12.55
2019-04-05T08:19:18.074Z,13.45
2019-04-05T08:21:47.627Z,14.18
2019-04-05T08:24:17.629Z,13.00
2019-04-05T08:26:47.260Z,14.75
2019-04-05T08:29:17.030Z,12.33
2019-04-05T08:31:46.874Z,11.43
2019-04-05T08:34:16.514Z,12.70
2019-04-05T08:36:46.272Z,10.55
2019-04-05T08:39:15.911Z,11.50
2019-04-05T08:41:45.456Z,11.70
2019-04-05T08:44:16.011Z,10.95
2019-04-05T08:46:45.725Z,11.53
2019-04-05T08:49:15.290Z,10.00
2019-04-05T08:51:45.193Z,10.85
2019-04-05T08:54:14.811Z,11.88
2019-04-05T08:56:44.589Z,11.30
2019-04-05T08:59:14.376Z,9.93
2019-04-05T09:01:44.052Z,11.15
2019-04-05T09:04:14.122Z,10.53
2019-04-05T09:06:44.008Z,9.68
2019-04-05T09:09:13.683Z,11.95
2019-04-05T09:11:46.641Z,11.57
2019-04-05T09:14:16.235Z,12.80
2019-04-05T09:16:45.850Z,10.70
2019-04-05T09:19:23.596Z,12.88
2019-04-05T09:21:47.826Z,11.12
2019-04-05T09:24:17.366Z,11.57
2019-04-05T09:26:46.975Z,10.70
2019-04-05T09:29:16.558Z,12.03
2019-04-05T09:31:46.202Z,11.88
2019-04-05T09:34:19.099Z,10.05
2019-04-05T09:36:49.619Z,8.43
2019-04-05T09:39:19.160Z,8.85
2019-04-05T09:41:48.736Z,11.38
2019-04-05T09:44:18.426Z,10.75
2019-04-05T09:46:50.996Z,8.48
2019-04-05T09:49:19.296Z,9.20
2019-04-05T09:51:48.925Z,10.25
2019-04-05T09:54:18.493Z,9.98
2019-04-05T09:56:48.122Z,9.03
2019-04-05T09:59:17.888Z,10.48
2019-04-05T10:01:53.489Z,10.15
2019-04-05T10:04:23.057Z,10.85
2019-04-05T10:06:52.587Z,9.53
2019-04-05T10:09:22.293Z,9.55
2019-04-05T10:11:51.954Z,10.25
2019-04-05T10:14:21.543Z,9.30
2019-04-05T10:16:51.384Z,8.45
2019-04-05T10:19:20.880Z,9.43
2019-04-05T10:21:50.442Z,8.40
2019-04-05T10:24:20.014Z,9.25
2019-04-05T10:26:49.682Z,8.95
2019-04-05T10:29:19.402Z,8.08
2019-04-05T10:31:49.031Z,8.88
2019-04-05T10:34:18.640Z,7.80
2019-04-05T10:36:48.262Z,7.97
2019-04-05T10:39:17.943Z,7.90
2019-04-05T10:41:47.822Z,8.30
2019-04-05T10:44:18.479Z,7.65
2019-04-05T10:46:48.122Z,8.23
2019-04-05T10:49:17.886Z,8.85
2019-04-05T10:51:47.569Z,8.38
2019-04-05T10:54:17.614Z,9.30
2019-04-05T10:56:47.264Z,9.63
2019-04-05T10:59:19.795Z,9.33
2019-04-05T11:01:49.334Z,8.63
2019-04-05T11:04:20.155Z,8.08
2019-04-05T11:06:49.744Z,8.38
2019-04-05T11:09:20.752Z,10.95
2019-04-05T11:11:50.340Z,11.25
2019-04-05T11:14:20.308Z,10.15
2019-04-05T11:16:58.512Z,8.30
2019-04-05T11:19:21.400Z,8.20
2019-04-05T11:21:52.371Z,6.80
2019-04-05T11:24:22.187Z,5.97
2019-04-05T11:26:52.173Z,6.33
2019-04-05T11:42:24.294Z,5.97
2019-04-05T11:59:21.547Z,8.73
2019-04-05T12:02:13.391Z,8.80
2019-04-05T12:04:44.782Z,8.55
2019-04-05T12:10:41.986Z,7.50
2019-04-05T12:13:41.271Z,7.25
2019-04-05T12:16:17.404Z,6.83
2019-04-05T12:18:47.360Z,8.63
2019-04-05T12:21:17.390Z,7.67
2019-04-05T12:23:48.020Z,7.55
2019-04-05T12:26:18.013Z,7.35
2019-04-05T12:28:47.824Z,6.47
2019-04-05T12:31:19.754Z,7.20
2019-04-05T12:33:52.406Z,6.12
2019-04-05T12:36:22.294Z,6.62
2019-04-05T12:38:54.447Z,7.95
2019-04-05T12:41:25.759Z,7.03
2019-04-05T12:43:55.573Z,8.55
2019-04-05T12:46:31.258Z,8.60
2019-04-05T12:49:03.418Z,7.85
2019-04-05T12:51:33.548Z,9.70
2019-04-05T12:54:06.622Z,10.43
2019-04-05T12:56:38.624Z,9.18
2019-04-05T12:59:10.347Z,9.65
2019-04-05T13:01:40.118Z,9.50
2019-04-05T13:07:01.350Z,14.18
2019-04-05T13:09:31.495Z,13.10
2019-04-05T13:12:04.558Z,14.45
2019-04-05T13:14:34.649Z,13.93
2019-04-05T13:17:10.036Z,11.70
2019-04-05T13:20:12.182Z,14.30
2019-04-05T13:22:39.574Z,11.20
2019-04-05T13:25:15.468Z,11.48
2019-04-05T13:27:51.677Z,12.50
2019-04-05T13:30:18.698Z,10.25
2019-04-05T13:33:08.106Z,11.78
2019-04-05T13:35:42.251Z,11.30
2019-04-05T13:38:12.085Z,11.57
2019-04-05T13:40:42.522Z,10.25
2019-04-05T13:43:12.260Z,10.98
2019-04-05T13:45:42.321Z,13.15
2019-04-05T13:48:15.115Z,10.28
2019-04-05T13:50:46.158Z,11.73
2019-04-05T13:53:23.235Z,12.18
2019-04-05T14:00:49.783Z,12.65
2019-04-05T14:15:31.418Z,14.43
2019-04-05T14:20:59.550Z,14.95
2019-04-05T14:23:39.138Z,18.32
2019-04-05T14:29:13.572Z,16.87
2019-04-05T14:32:23.434Z,16.75
2019-04-05T14:35:24.866Z,15.75
2019-04-05T14:38:43.491Z,14.53
2019-04-05T14:54:09.684Z,15.55
2019-04-05T15:00:37.051Z,17.62
2019-04-05T15:04:34.697Z,14.78
2019-04-05T15:06:55.734Z,16.93
2019-04-05T15:12:36.459Z,16.77
2019-04-05T15:13:30.789Z,14.55
2019-04-05T15:16:00.232Z,17.05
2019-04-05T15:18:29.800Z,15.58
2019-04-05T15:20:59.271Z,14.30
2019-04-05T15:23:29.048Z,17.07
2019-04-05T15:26:20.419Z,16.07
2019-04-05T15:28:48.883Z,16.55
2019-04-05T15:31:18.392Z,16.57
2019-04-05T15:33:47.959Z,16.75
2019-04-05T15:36:17.472Z,18.12
2019-04-05T15:38:47.150Z,16.25
2019-04-05T15:41:16.749Z,15.23
2019-04-05T15:43:46.355Z,14.93
2019-04-05T15:46:17.302Z,15.72
2019-04-05T15:48:46.979Z,16.25
2019-04-05T15:51:16.466Z,16.80
2019-04-05T15:53:46.245Z,15.68
2019-04-05T15:56:15.782Z,16.15
2019-04-05T15:58:45.348Z,15.45
2019-04-05T16:01:14.961Z,13.18
2019-04-05T16:03:44.466Z,15.55
2019-04-05T16:06:14.120Z,13.38
2019-04-05T16:08:43.915Z,14.98
2019-04-05T16:11:13.631Z,15.63
2019-04-05T16:13:43.570Z,16.42
2019-04-05T16:16:13.042Z,15.63
2019-04-05T16:18:42.556Z,19.40
2019-04-05T16:21:12.081Z,18.23
2019-04-05T16:23:41.625Z,21.57
2019-04-05T16:26:11.185Z,22.17
2019-04-05T16:28:41.226Z,17.15
2019-04-05T16:31:10.998Z,16.30
2019-04-05T16:33:40.698Z,14.20
2019-04-05T16:36:10.343Z,13.65
2019-04-05T16:38:40.021Z,14.30
2019-04-05T16:41:09.798Z,11.73
2019-04-05T16:43:39.261Z,13.98
2019-04-05T16:46:09.066Z,13.75
2019-04-05T16:48:38.645Z,12.30
2019-04-05T16:51:28.733Z,11.50
2019-04-05T16:54:04.813Z,13.72
2019-04-05T16:56:34.287Z,11.45
2019-04-05T16:59:03.913Z,13.88
2019-04-05T17:01:33.434Z,14.07
2019-04-05T17:04:03.057Z,14.40
2019-04-05T17:06:32.631Z,14.85
2019-04-05T17:09:02.254Z,15.65
2019-04-05T17:11:31.683Z,14.98
2019-04-05T17:14:01.260Z,15.90
2019-04-05T17:16:30.919Z,14.93
2019-04-05T17:19:00.429Z,14.85
2019-04-05T17:21:30.047Z,13.68
2019-04-05T17:23:59.621Z,15.55
2019-04-05T17:26:29.211Z,15.03
2019-04-05T17:28:58.902Z,15.25
2019-04-05T17:31:28.427Z,14.87
2019-04-05T17:33:58.006Z,15.90
2019-04-05T17:36:27.810Z,15.05
2019-04-05T17:38:57.331Z,14.90
2019-04-05T17:41:26.972Z,16.02
2019-04-05T17:43:56.501Z,15.58
2019-04-05T17:46:26.105Z,15.83
2019-04-05T17:48:55.776Z,15.58
2019-04-05T17:51:25.871Z,15.83
2019-04-05T17:53:55.417Z,15.43
2019-04-05T17:56:25.219Z,14.28
2019-04-05T17:58:56.395Z,12.50
2019-04-05T18:01:26.137Z,12.05
2019-04-05T18:03:55.718Z,11.70
2019-04-05T18:06:25.363Z,13.72
2019-04-05T18:08:54.902Z,13.15
2019-04-05T18:11:24.429Z,11.90
2019-04-05T18:13:54.063Z,12.03
2019-04-05T18:16:23.705Z,13.50
2019-04-05T18:18:53.297Z,10.98
2019-04-05T18:21:22.917Z,12.20
2019-04-05T18:23:52.840Z,10.30
2019-04-05T18:26:22.349Z,13.78
2019-04-05T18:28:52.048Z,13.43
2019-04-05T18:31:22.308Z,13.30
2019-04-05T18:33:51.840Z,12.58
2019-04-05T18:36:21.408Z,13.98
2019-04-05T18:38:50.901Z,12.68
2019-04-05T18:41:20.442Z,12.23
2019-04-05T18:43:49.957Z,13.28
2019-04-05T18:46:19.399Z,13.00
2019-04-05T18:48:48.886Z,13.20
2019-04-05T18:51:19.229Z,13.62
2019-04-05T18:53:48.724Z,13.90
2019-04-05T18:56:20.812Z,13.53
2019-04-05T18:58:50.345Z,13.38
2019-04-05T19:01:19.777Z,12.78
2019-04-05T19:03:50.735Z,12.73
2019-04-05T19:06:20.327Z,14.90
2019-04-05T19:08:49.845Z,14.20
2019-04-05T19:11:19.369Z,15.23
2019-04-05T19:14:00.388Z,13.20
2019-04-05T19:16:19.992Z,15.58
2019-04-05T19:18:49.546Z,17.30
2019-04-05T19:21:19.045Z,14.83
2019-04-05T19:23:50.947Z,14.40
2019-04-05T19:26:19.901Z,14.60
2019-04-05T19:28:49.356Z,16.15
2019-04-05T19:48:57.749Z,13.62
2019-04-05T19:51:27.299Z,16.95
2019-04-05T19:54:01.303Z,15.00
2019-04-05T19:56:28.022Z,15.45
2019-04-05T19:58:57.523Z,14.05
2019-04-05T20:01:26.987Z,15.40
2019-04-05T20:03:56.518Z,14.95
2019-04-05T20:06:26.239Z,18.07
2019-04-05T20:08:55.677Z,15.32
2019-04-05T20:11:25.254Z,15.32
2019-04-05T20:13:54.737Z,15.55
2019-04-05T20:16:24.837Z,16.67
2019-04-05T20:18:54.342Z,15.88
2019-04-05T20:21:23.920Z,16.25
2019-04-05T20:23:53.430Z,16.10
2019-04-05T20:26:22.942Z,16.80
2019-04-05T20:28:52.694Z,16.70
2019-04-05T20:31:22.295Z,16.55
2019-04-05T20:33:51.820Z,17.52
2019-04-05T20:36:21.277Z,15.58
2019-04-05T20:38:50.828Z,15.83
2019-04-05T20:41:20.382Z,18.15
2019-04-05T20:43:50.699Z,16.55
2019-04-05T20:46:20.223Z,17.62
2019-04-05T20:48:49.813Z,16.90
2019-04-05T20:51:19.323Z,16.20
2019-04-05T20:53:48.826Z,16.65
2019-04-05T20:56:18.564Z,18.00
2019-04-05T20:58:48.099Z,17.45
2019-04-05T21:01:17.677Z,18.15
2019-04-05T21:03:47.246Z,17.40
2019-04-05T21:06:17.299Z,18.30
2019-04-05T21:08:46.907Z,18.40
2019-04-05T21:11:16.413Z,17.57
2019-04-05T21:13:46.256Z,20.00
2019-04-05T21:16:15.921Z,20.23
2019-04-05T21:18:45.593Z,19.80
2019-04-05T21:21:15.187Z,18.70
2019-04-05T21:23:44.684Z,20.12
2019-04-05T21:26:14.266Z,20.45
2019-04-05T21:28:43.778Z,20.55
2019-04-05T21:31:13.309Z,20.65
2019-04-05T21:33:42.858Z,20.32
2019-04-05T21:36:12.479Z,21.68
2019-04-05T21:38:43.033Z,21.10
2019-04-05T21:41:13.268Z,20.88
2019-04-05T21:43:42.838Z,21.02
2019-04-05T21:46:12.321Z,22.02
2019-04-05T21:48:41.906Z,21.62
2019-04-05T21:51:11.615Z,22.50
2019-04-05T21:53:41.197Z,23.73
2019-04-05T21:56:10.702Z,25.72
2019-04-05T21:58:40.329Z,23.75
2019-04-05T22:01:10.573Z,21.87
2019-04-05T22:03:40.339Z,22.82
2019-04-05T22:06:09.959Z,23.67
2019-04-05T22:08:39.501Z,22.32
2019-04-05T22:11:09.079Z,25.08
2019-04-05T22:13:38.635Z,25.00
2019-04-05T22:16:08.157Z,22.05
2019-04-05T22:18:37.695Z,24.20
2019-04-05T22:21:07.779Z,22.62
2019-04-05T22:23:37.578Z,24.47
2019-04-05T22:26:07.683Z,25.45
2019-04-05T22:28:39.710Z,23.45
2019-04-05T22:31:09.190Z,22.55
2019-04-05T22:33:39.490Z,26.30
2019-04-05T22:36:09.638Z,25.45
2019-04-05T22:38:39.284Z,24.63
2019-04-05T22:41:08.799Z,26.90
2019-04-05T22:43:38.442Z,25.90
2019-04-05T22:46:08.019Z,27.15
2019-04-05T22:48:37.699Z,27.60
2019-04-05T22:51:07.207Z,28.45
2019-04-05T22:53:38.884Z,25.95
2019-04-05T22:56:10.698Z,25.45
2019-04-05T22:58:40.344Z,27.58
2019-04-05T23:01:09.878Z,26.60
2019-04-05T23:03:39.476Z,25.10
2019-04-05T23:06:09.062Z,28.20
2019-04-05T23:08:38.587Z,27.80
2019-04-05T23:11:08.245Z,27.20
2019-04-05T23:13:37.864Z,27.45
2019-04-05T23:16:07.343Z,26.00
2019-04-05T23:18:36.895Z,28.25
2019-04-05T23:21:06.410Z,27.58
2019-04-05T23:23:35.962Z,28.38
2019-04-05T23:26:05.450Z,26.05
2019-04-05T23:28:34.973Z,28.02
2019-04-05T23:31:04.479Z,28.27
2019-04-05T23:33:34.031Z,28.62
2019-04-05T23:36:03.533Z,24.65
2019-04-05T23:38:33.286Z,27.45
2019-04-05T23:41:04.309Z,24.92
2019-04-05T23:43:34.413Z,25.37
2019-04-05T23:46:03.957Z,27.40
2019-04-05T23:48:33.634Z,26.85
2019-04-05T23:51:03.139Z,28.25
2019-04-05T23:53:32.683Z,27.87
2019-04-05T23:56:02.249Z,26.05
2019-04-05T23:58:31.804Z,27.45
